createdAt,value
2017-09-28T00:00:03.353Z,990.00
2017-09-28T00:01:03.339Z,990.00
2017-09-28T00:02:03.334Z,990.01
2017-09-28T00:03:03.333Z,990.00
2017-09-28T00:04:03.334Z,990.02
2017-09-28T00:05:03.331Z,989.99
2017-09-28T00:06:03.334Z,990.02
2017-09-28T00:07:03.332Z,990.01
2017-09-28T00:08:03.321Z,989.98
2017-09-28T00:09:03.326Z,989.98
2017-09-28T00:10:03.324Z,990.00
2017-09-28T00:11:03.319Z,989.93
2017-09-28T00:12:03.323Z,989.96
2017-09-28T00:13:03.316Z,989.97
2017-09-28T00:14:03.319Z,989.91
2017-09-28T00:15:03.322Z,989.93
2017-09-28T00:16:03.320Z,989.92
2017-09-28T00:17:03.314Z,989.94
2017-09-28T00:18:03.313Z,989.93
2017-09-28T00:19:03.314Z,989.95
2017-09-28T00:20:03.315Z,989.93
2017-09-28T00:21:03.317Z,989.91
2017-09-28T00:22:03.311Z,989.95
2017-09-28T00:23:03.308Z,989.96
2017-09-28T00:24:03.315Z,989.96
2017-09-28T00:25:03.304Z,989.96
2017-09-28T00:26:03.300Z,989.98
2017-09-28T00:27:03.323Z,989.95
2017-09-28T00:28:03.301Z,989.95
2017-09-28T00:29:03.298Z,989.95
2017-09-28T00:30:03.304Z,989.95
2017-09-28T00:31:03.299Z,989.92
2017-09-28T00:32:03.293Z,989.92
2017-09-28T00:33:03.305Z,989.94
2017-09-28T00:34:03.293Z,989.98
2017-09-28T00:35:03.315Z,989.93
2017-09-28T00:36:03.292Z,989.93
2017-09-28T00:37:03.294Z,989.90
2017-09-28T00:38:03.290Z,989.93
2017-09-28T00:39:03.290Z,989.93
2017-09-28T00:40:03.304Z,989.94
2017-09-28T00:41:03.291Z,989.92
2017-09-28T00:42:03.284Z,989.92
2017-09-28T00:43:03.281Z,989.94
2017-09-28T00:44:03.284Z,989.88
2017-09-28T00:45:03.295Z,989.88
2017-09-28T00:46:03.290Z,989.88
2017-09-28T00:47:03.276Z,989.92
2017-09-28T00:48:03.289Z,989.90
2017-09-28T00:49:03.299Z,989.89
2017-09-28T00:50:03.275Z,989.90
2017-09-28T00:51:03.273Z,989.90
2017-09-28T00:52:03.272Z,989.88
2017-09-28T00:53:03.270Z,989.90
2017-09-28T00:54:03.271Z,989.89
2017-09-28T00:55:03.272Z,989.86
2017-09-28T00:56:03.270Z,989.86
2017-09-28T00:57:03.288Z,989.89
2017-09-28T00:58:03.266Z,989.89
2017-09-28T00:59:03.289Z,989.88
2017-09-28T01:00:03.275Z,989.88
2017-09-28T01:01:03.267Z,989.89
2017-09-28T01:02:03.265Z,989.88
2017-09-28T01:03:03.277Z,989.91
2017-09-28T01:04:03.280Z,989.87
2017-09-28T01:05:03.260Z,989.90
2017-09-28T01:06:03.253Z,989.86
2017-09-28T01:07:03.257Z,989.89
2017-09-28T01:08:03.255Z,989.88
2017-09-28T01:09:03.257Z,989.88
2017-09-28T01:10:03.259Z,989.86
2017-09-28T01:11:03.248Z,989.85
2017-09-28T01:12:03.252Z,989.86
2017-09-28T01:13:03.250Z,989.87
2017-09-28T01:14:03.247Z,989.82
2017-09-28T01:15:03.248Z,989.89
2017-09-28T01:16:03.245Z,989.88
2017-09-28T01:17:03.249Z,989.87
2017-09-28T01:18:03.240Z,989.85
2017-09-28T01:19:03.238Z,989.87
2017-09-28T01:20:03.248Z,989.88
2017-09-28T01:21:03.243Z,989.92
2017-09-28T01:22:03.241Z,989.90
2017-09-28T01:23:03.241Z,989.86
2017-09-28T01:24:03.242Z,989.88
2017-09-28T01:25:03.247Z,989.89
2017-09-28T01:26:03.233Z,989.89
2017-09-28T01:27:03.240Z,989.88
2017-09-28T01:28:03.234Z,989.86
2017-09-28T01:29:03.231Z,989.87
2017-09-28T01:30:03.235Z,989.92
2017-09-28T01:31:03.229Z,989.89
2017-09-28T01:32:03.228Z,989.87
2017-09-28T01:33:03.228Z,989.86
2017-09-28T01:34:03.232Z,989.85
2017-09-28T01:35:03.221Z,989.82
2017-09-28T01:36:03.228Z,989.82
2017-09-28T01:37:03.222Z,989.81
2017-09-28T01:38:03.225Z,989.81
2017-09-28T01:39:03.220Z,989.80
2017-09-28T01:40:03.223Z,989.79
2017-09-28T01:41:03.220Z,989.75
2017-09-28T01:42:03.218Z,989.77
2017-09-28T01:43:03.216Z,989.78
2017-09-28T01:44:03.213Z,989.83
2017-09-28T01:45:03.212Z,989.81
2017-09-28T01:46:03.212Z,989.84
2017-09-28T01:47:03.217Z,989.82
2017-09-28T01:48:03.210Z,989.82
2017-09-28T01:49:03.208Z,989.78
2017-09-28T01:50:03.213Z,989.79
2017-09-28T01:51:03.202Z,989.77
2017-09-28T01:52:03.205Z,989.81
2017-09-28T01:53:03.201Z,989.81
2017-09-28T01:54:03.202Z,989.78
2017-09-28T01:55:03.196Z,989.80
2017-09-28T01:56:03.205Z,989.75
2017-09-28T01:57:03.196Z,989.78
2017-09-28T01:58:03.193Z,989.78
2017-09-28T01:59:03.191Z,989.74
2017-09-28T02:00:03.201Z,989.73
2017-09-28T02:01:03.191Z,989.71
2017-09-28T02:02:03.191Z,989.70
2017-09-28T02:03:03.186Z,989.69
2017-09-28T02:04:03.190Z,989.70
2017-09-28T02:05:03.188Z,989.69
2017-09-28T02:06:03.183Z,989.70
2017-09-28T02:07:03.186Z,989.64
2017-09-28T02:08:03.179Z,989.71
2017-09-28T02:09:03.179Z,989.69
2017-09-28T02:10:03.175Z,989.70
2017-09-28T02:11:03.171Z,989.68
2017-09-28T02:12:03.175Z,989.70
2017-09-28T02:13:03.168Z,989.72
2017-09-28T02:14:03.176Z,989.68
2017-09-28T02:15:03.166Z,989.68
2017-09-28T02:16:03.165Z,989.68
2017-09-28T02:17:03.168Z,989.71
2017-09-28T02:18:03.162Z,989.71
2017-09-28T02:19:03.162Z,989.68
2017-09-28T02:20:03.157Z,989.70
2017-09-28T02:21:03.158Z,989.69
2017-09-28T02:22:03.163Z,989.66
2017-09-28T02:23:03.156Z,989.63
2017-09-28T02:24:03.159Z,989.71
2017-09-28T02:25:03.157Z,989.68
2017-09-28T02:26:03.153Z,989.69
2017-09-28T02:27:03.151Z,989.70
2017-09-28T02:28:03.148Z,989.70
2017-09-28T02:29:03.147Z,989.71
2017-09-28T02:30:03.151Z,989.72
2017-09-28T02:31:03.143Z,989.73
2017-09-28T02:32:03.139Z,989.70
2017-09-28T02:33:03.154Z,989.71
2017-09-28T02:34:03.139Z,989.70
2017-09-28T02:35:03.135Z,989.69
2017-09-28T02:36:03.158Z,989.75
2017-09-28T02:37:03.137Z,989.69
2017-09-28T02:38:03.129Z,989.72
2017-09-28T02:39:03.126Z,989.73
2017-09-28T02:40:03.132Z,989.75
2017-09-28T02:41:03.132Z,989.73
2017-09-28T02:42:03.121Z,989.74
2017-09-28T02:43:03.122Z,989.74
2017-09-28T02:44:03.117Z,989.77
2017-09-28T02:45:03.133Z,989.73
2017-09-28T02:46:03.118Z,989.73
2017-09-28T02:47:03.119Z,989.71
2017-09-28T02:48:03.110Z,989.70
2017-09-28T02:49:03.106Z,989.70
2017-09-28T02:50:03.114Z,989.74
2017-09-28T02:51:03.108Z,989.73
2017-09-28T02:52:03.108Z,989.69
2017-09-28T02:53:03.102Z,989.73
2017-09-28T02:54:03.099Z,989.74
2017-09-28T02:55:03.101Z,989.74
2017-09-28T02:56:03.096Z,989.71
2017-09-28T02:57:03.101Z,989.71
2017-09-28T02:58:03.091Z,989.75
2017-09-28T02:59:03.088Z,989.78
2017-09-28T03:00:03.118Z,989.78
2017-09-28T03:01:03.081Z,989.74
2017-09-28T03:02:03.085Z,989.76
2017-09-28T03:03:03.083Z,989.80
2017-09-28T03:04:03.088Z,989.76
2017-09-28T03:05:03.081Z,989.76
2017-09-28T03:06:03.074Z,989.71
2017-09-28T03:07:03.074Z,989.74
2017-09-28T03:08:03.090Z,989.75
2017-09-28T03:09:03.069Z,989.77
2017-09-28T03:10:03.098Z,989.70
2017-09-28T03:11:03.067Z,989.75
2017-09-28T03:12:03.073Z,989.77
2017-09-28T03:13:03.070Z,989.74
2017-09-28T03:14:03.059Z,989.71
2017-09-28T03:15:03.065Z,989.76
2017-09-28T03:16:03.055Z,989.74
2017-09-28T03:17:03.056Z,989.73
2017-09-28T03:18:03.050Z,989.73
2017-09-28T03:19:03.048Z,989.76
2017-09-28T03:20:03.061Z,989.76
2017-09-28T03:21:03.060Z,989.73
2017-09-28T03:22:03.051Z,989.75
2017-09-28T03:23:03.040Z,989.77
2017-09-28T03:24:03.044Z,989.80
2017-09-28T03:25:03.036Z,989.79
2017-09-28T03:26:03.047Z,989.81
2017-09-28T03:27:03.052Z,989.81
2017-09-28T03:28:03.031Z,989.80
2017-09-28T03:29:03.029Z,989.82
2017-09-28T03:30:03.045Z,989.83
2017-09-28T03:31:03.032Z,989.87
2017-09-28T03:32:03.029Z,989.86
2017-09-28T03:33:03.021Z,989.86
2017-09-28T03:34:03.019Z,989.88
2017-09-28T03:35:03.027Z,989.88
2017-09-28T03:36:03.016Z,989.81
2017-09-28T03:37:03.021Z,989.89
2017-09-28T03:38:03.019Z,989.86
2017-09-28T03:39:03.012Z,989.89
2017-09-28T03:40:03.010Z,989.87
2017-09-28T03:41:03.002Z,989.92
2017-09-28T03:42:03.004Z,989.92
2017-09-28T03:43:02.998Z,989.92
2017-09-28T03:44:03.025Z,989.91
2017-09-28T03:45:02.996Z,989.93
2017-09-28T03:46:03.000Z,989.93
2017-09-28T03:47:02.993Z,989.92
2017-09-28T03:48:02.993Z,989.96
2017-09-28T03:49:02.985Z,989.91
2017-09-28T03:50:02.984Z,989.95
2017-09-28T03:51:02.982Z,989.96
2017-09-28T03:52:02.981Z,989.97
2017-09-28T03:53:02.975Z,989.97
2017-09-28T03:54:02.975Z,990.02
2017-09-28T03:55:02.973Z,990.01
2017-09-28T03:56:02.970Z,990.05
2017-09-28T03:57:02.968Z,990.05
2017-09-28T03:58:02.965Z,990.05
2017-09-28T03:59:02.964Z,990.07
2017-09-28T04:00:02.966Z,990.08
2017-09-28T04:01:02.980Z,990.07
2017-09-28T04:02:02.957Z,990.11
2017-09-28T04:03:02.956Z,990.07
2017-09-28T04:04:02.957Z,990.10
2017-09-28T04:05:02.947Z,990.09
2017-09-28T04:06:02.952Z,990.10
2017-09-28T04:07:02.942Z,990.11
2017-09-28T04:08:02.941Z,990.07
2017-09-28T04:09:02.953Z,990.06
2017-09-28T04:10:02.946Z,990.08
2017-09-28T04:11:02.935Z,990.06
2017-09-28T04:12:02.946Z,990.09
2017-09-28T04:13:02.934Z,990.08
2017-09-28T04:14:02.930Z,990.06
2017-09-28T04:15:02.931Z,990.08
2017-09-28T04:16:02.925Z,990.08
2017-09-28T04:17:02.924Z,990.05
2017-09-28T04:18:02.918Z,990.08
2017-09-28T04:19:02.913Z,990.05
2017-09-28T04:20:02.918Z,990.07
2017-09-28T04:21:02.940Z,990.06
2017-09-28T04:22:02.927Z,990.05
2017-09-28T04:23:02.915Z,990.02
2017-09-28T04:24:02.910Z,990.04
2017-09-28T04:25:02.905Z,990.05
2017-09-28T04:26:02.899Z,990.03
2017-09-28T04:27:02.902Z,990.00
2017-09-28T04:28:02.897Z,990.01
2017-09-28T04:29:02.903Z,990.03
2017-09-28T04:30:02.892Z,990.02
2017-09-28T04:31:02.891Z,990.01
2017-09-28T04:32:02.894Z,990.00
2017-09-28T04:33:02.882Z,990.01
2017-09-28T04:34:02.884Z,990.02
2017-09-28T04:35:02.878Z,990.03
2017-09-28T04:36:02.879Z,990.01
2017-09-28T04:37:02.875Z,990.00
2017-09-28T04:38:02.872Z,990.03
2017-09-28T04:39:02.871Z,990.02
2017-09-28T04:40:02.866Z,990.02
2017-09-28T04:41:02.866Z,990.02
2017-09-28T04:42:02.858Z,989.99
2017-09-28T04:43:02.857Z,989.99
2017-09-28T04:44:02.855Z,989.99
2017-09-28T04:45:02.855Z,989.99
2017-09-28T04:46:02.855Z,990.00
2017-09-28T04:47:02.851Z,990.01
2017-09-28T04:48:02.855Z,990.02
2017-09-28T04:49:02.845Z,990.00
2017-09-28T04:50:02.841Z,989.99
2017-09-28T04:51:02.843Z,989.96
2017-09-28T04:52:02.840Z,990.00
2017-09-28T04:53:02.835Z,990.01
2017-09-28T04:54:02.838Z,990.03
2017-09-28T04:55:02.832Z,990.02
2017-09-28T04:56:02.836Z,990.02
2017-09-28T04:57:02.829Z,990.03
2017-09-28T04:58:02.822Z,990.04
2017-09-28T04:59:02.822Z,990.02
2017-09-28T05:00:02.818Z,990.05
2017-09-28T05:01:02.823Z,990.08
2017-09-28T05:02:02.815Z,990.07
2017-09-28T05:03:02.813Z,990.06
2017-09-28T05:04:02.805Z,990.09
2017-09-28T05:05:02.805Z,990.12
2017-09-28T05:06:02.816Z,990.11
2017-09-28T05:07:02.834Z,990.09
2017-09-28T05:08:02.798Z,990.10
2017-09-28T05:09:02.799Z,990.10
2017-09-28T05:10:02.793Z,990.12
2017-09-28T05:11:02.787Z,990.14
2017-09-28T05:12:02.787Z,990.17
2017-09-28T05:13:02.825Z,990.16
2017-09-28T05:14:02.793Z,990.16
2017-09-28T05:15:02.783Z,990.17
2017-09-28T05:16:02.782Z,990.15
2017-09-28T05:17:02.773Z,990.14
2017-09-28T05:18:02.771Z,990.16
2017-09-28T05:19:02.772Z,990.16
2017-09-28T05:20:02.774Z,990.20
2017-09-28T05:21:02.775Z,990.15
2017-09-28T05:22:02.772Z,990.18
2017-09-28T05:23:02.762Z,990.24
2017-09-28T05:24:02.760Z,990.21
2017-09-28T05:25:02.758Z,990.20
2017-09-28T05:26:02.756Z,990.23
2017-09-28T05:27:02.748Z,990.22
2017-09-28T05:28:02.750Z,990.24
2017-09-28T05:29:02.742Z,990.27
2017-09-28T05:30:02.754Z,990.30
2017-09-28T05:31:02.738Z,990.25
2017-09-28T05:32:02.747Z,990.33
2017-09-28T05:33:02.734Z,990.31
2017-09-28T05:34:02.735Z,990.34
2017-09-28T05:35:02.733Z,990.34
2017-09-28T05:36:02.731Z,990.35
2017-09-28T05:37:02.727Z,990.33
2017-09-28T05:38:02.727Z,990.32
2017-09-28T05:39:02.724Z,990.30
2017-09-28T05:40:02.724Z,990.34
2017-09-28T05:41:02.718Z,990.31
2017-09-28T05:42:02.727Z,990.33
2017-09-28T05:43:02.715Z,990.36
2017-09-28T05:44:02.708Z,990.36
2017-09-28T05:45:02.707Z,990.35
2017-09-28T05:46:02.707Z,990.36
2017-09-28T05:47:02.699Z,990.39
2017-09-28T05:48:02.706Z,990.37
2017-09-28T05:49:02.705Z,990.37
2017-09-28T05:50:02.699Z,990.35
2017-09-28T05:51:02.707Z,990.38
2017-09-28T05:52:02.699Z,990.41
2017-09-28T05:53:02.690Z,990.41
2017-09-28T05:54:02.689Z,990.42
2017-09-28T05:55:02.686Z,990.42
2017-09-28T05:56:02.682Z,990.42
2017-09-28T05:57:02.692Z,990.44
2017-09-28T05:58:02.679Z,990.43
2017-09-28T05:59:02.681Z,990.47
2017-09-28T06:00:02.682Z,990.41
2017-09-28T06:01:02.677Z,990.47
2017-09-28T06:02:02.669Z,990.51
2017-09-28T06:03:02.669Z,990.43
2017-09-28T06:04:02.667Z,990.46
2017-09-28T06:05:02.669Z,990.50
2017-09-28T06:06:02.664Z,990.52
2017-09-28T06:07:02.659Z,990.51
2017-09-28T06:08:02.659Z,990.50
2017-09-28T06:09:02.656Z,990.53
2017-09-28T06:10:02.659Z,990.54
2017-09-28T06:11:02.652Z,990.56
2017-09-28T06:12:02.658Z,990.58
2017-09-28T06:13:02.649Z,990.60
2017-09-28T06:14:02.649Z,990.59
2017-09-28T06:15:02.645Z,990.61
2017-09-28T06:16:02.640Z,990.58
2017-09-28T06:17:02.639Z,990.62
2017-09-28T06:18:02.643Z,990.64
2017-09-28T06:19:02.634Z,990.60
2017-09-28T06:20:02.630Z,990.57
2017-09-28T06:21:02.641Z,990.59
2017-09-28T06:22:02.629Z,990.55
2017-09-28T06:23:02.630Z,990.60
2017-09-28T06:24:02.635Z,990.57
2017-09-28T06:26:02.631Z,990.57
2017-09-28T06:27:02.632Z,990.59
2017-09-28T06:28:02.639Z,990.60
2017-09-28T06:29:02.628Z,990.61
2017-09-28T06:30:02.647Z,990.55
2017-09-28T06:31:02.617Z,990.59
2017-09-28T06:32:23.633Z,990.57
2017-09-28T06:33:02.620Z,990.62
2017-09-28T06:34:02.634Z,990.59
2017-09-28T06:35:02.611Z,990.65
2017-09-28T06:36:02.617Z,990.66
2017-09-28T06:37:02.613Z,990.64
2017-09-28T06:38:23.618Z,990.69
2017-09-28T06:39:02.607Z,990.71
2017-09-28T06:40:02.613Z,990.73
2017-09-28T06:41:02.609Z,990.74
2017-09-28T06:42:02.617Z,990.73
2017-09-28T06:43:02.609Z,990.74
2017-09-28T06:44:23.623Z,990.73
2017-09-28T06:45:02.601Z,990.71
2017-09-28T06:46:02.602Z,990.78
2017-09-28T06:47:02.599Z,990.77
2017-09-28T06:48:02.596Z,990.84
2017-09-28T06:49:02.605Z,990.84
2017-09-28T06:50:23.610Z,990.83
2017-09-28T06:51:02.594Z,990.86
2017-09-28T06:52:02.599Z,990.85
2017-09-28T06:53:02.593Z,990.84
2017-09-28T06:54:02.592Z,990.85
2017-09-28T06:55:02.622Z,990.84
2017-09-28T06:56:23.597Z,990.87
2017-09-28T06:57:02.584Z,990.85
2017-09-28T06:58:02.588Z,990.82
2017-09-28T06:59:02.586Z,990.87
2017-09-28T07:00:02.586Z,990.86
2017-09-28T07:01:02.585Z,990.90
2017-09-28T07:02:23.595Z,990.87
2017-09-28T07:03:02.585Z,990.87
2017-09-28T07:04:02.585Z,990.89
2017-09-28T07:05:02.583Z,990.91
2017-09-28T07:06:02.583Z,990.90
2017-09-28T07:07:02.581Z,990.86
2017-09-28T07:08:23.590Z,990.88
2017-09-28T07:09:02.580Z,990.92
2017-09-28T07:10:02.577Z,990.91
2017-09-28T07:11:02.575Z,990.91
2017-09-28T07:12:02.577Z,990.91
2017-09-28T07:13:02.575Z,990.96
2017-09-28T07:14:23.586Z,990.94
2017-09-28T07:15:02.577Z,990.98
2017-09-28T07:16:02.577Z,990.99
2017-09-28T07:17:02.587Z,990.96
2017-09-28T07:18:02.579Z,991.00
2017-09-28T07:19:02.577Z,990.96
2017-09-28T07:20:23.586Z,990.97
2017-09-28T07:21:02.577Z,990.97
2017-09-28T07:22:02.575Z,990.96
2017-09-28T07:23:02.584Z,991.00
2017-09-28T07:24:02.573Z,990.96
2017-09-28T07:25:02.572Z,990.99
2017-09-28T07:26:23.585Z,991.00
2017-09-28T07:27:02.571Z,990.98
2017-09-28T07:28:02.578Z,991.00
2017-09-28T07:29:02.577Z,991.00
2017-09-28T07:30:02.578Z,991.04
2017-09-28T07:31:02.591Z,991.03
2017-09-28T07:32:23.588Z,990.94
2017-09-28T07:33:02.574Z,990.91
2017-09-28T07:34:02.575Z,990.92
2017-09-28T07:35:02.582Z,990.87
2017-09-28T07:36:02.583Z,990.88
2017-09-28T07:37:02.596Z,990.86
2017-09-28T07:38:23.588Z,990.85
2017-09-28T07:39:02.582Z,990.87
2017-09-28T07:40:02.581Z,990.84
2017-09-28T07:41:02.587Z,990.88
2017-09-28T07:42:02.589Z,990.89
2017-09-28T07:43:02.586Z,990.91
2017-09-28T07:44:23.597Z,990.91
2017-09-28T07:45:02.596Z,990.94
2017-09-28T07:46:02.594Z,990.92
2017-09-28T07:47:02.596Z,990.90
2017-09-28T07:48:02.602Z,990.89
2017-09-28T07:49:02.593Z,990.89
2017-09-28T07:50:23.605Z,990.89
2017-09-28T07:51:02.605Z,990.87
2017-09-28T07:52:02.626Z,990.90
2017-09-28T07:53:02.615Z,990.91
2017-09-28T07:54:02.643Z,990.95
2017-09-28T07:55:02.614Z,990.93
2017-09-28T07:56:23.620Z,990.91
2017-09-28T07:57:02.612Z,990.94
2017-09-28T07:58:02.619Z,990.93
2017-09-28T07:59:02.617Z,990.93
2017-09-28T08:00:02.616Z,990.93
2017-09-28T08:01:02.620Z,990.97
2017-09-28T08:02:23.632Z,990.95
2017-09-28T08:03:02.637Z,990.99
2017-09-28T08:04:02.659Z,991.02
2017-09-28T08:05:02.627Z,991.03
2017-09-28T08:06:02.641Z,991.03
2017-09-28T08:07:02.638Z,991.07
2017-09-28T08:08:23.649Z,991.06
2017-09-28T08:09:02.640Z,991.08
2017-09-28T08:10:02.646Z,991.06
2017-09-28T08:11:02.647Z,991.12
2017-09-28T08:12:02.655Z,991.16
2017-09-28T08:13:02.656Z,991.12
2017-09-28T08:14:23.661Z,991.12
2017-09-28T08:15:02.666Z,991.19
2017-09-28T08:16:02.654Z,991.12
2017-09-28T08:17:02.658Z,991.14
2017-09-28T08:18:02.665Z,991.13
2017-09-28T08:19:02.667Z,991.16
2017-09-28T08:20:23.677Z,991.10
2017-09-28T08:21:02.670Z,991.09
2017-09-28T08:22:02.690Z,991.07
2017-09-28T08:23:02.681Z,991.09
2017-09-28T08:24:02.678Z,991.11
2017-09-28T08:25:02.688Z,991.07
2017-09-28T08:26:23.692Z,991.09
2017-09-28T08:27:02.694Z,991.12
2017-09-28T08:28:02.690Z,991.11
2017-09-28T08:29:02.693Z,991.16
2017-09-28T08:30:02.697Z,991.13
2017-09-28T08:31:02.700Z,991.12
2017-09-28T08:32:23.715Z,991.16
2017-09-28T08:33:02.702Z,991.16
2017-09-28T08:34:02.704Z,991.16
2017-09-28T08:35:02.712Z,991.17
2017-09-28T08:36:02.711Z,991.14
2017-09-28T08:37:02.710Z,991.19
2017-09-28T08:38:23.727Z,991.15
2017-09-28T08:39:02.719Z,991.16
2017-09-28T08:40:02.724Z,991.13
2017-09-28T08:41:02.725Z,991.15
2017-09-28T08:42:02.729Z,991.13
2017-09-28T08:43:02.740Z,991.12
2017-09-28T08:44:23.744Z,991.10
2017-09-28T08:45:02.733Z,991.06
2017-09-28T08:46:02.741Z,991.11
2017-09-28T08:47:02.740Z,991.07
2017-09-28T08:48:02.747Z,991.13
2017-09-28T08:49:02.747Z,991.11
2017-09-28T08:50:23.758Z,991.11
2017-09-28T08:51:02.754Z,991.13
2017-09-28T08:52:02.763Z,991.14
2017-09-28T08:53:02.757Z,991.14
2017-09-28T08:54:02.774Z,991.16
2017-09-28T08:55:02.769Z,991.14
2017-09-28T08:56:23.780Z,991.19
2017-09-28T08:57:02.778Z,991.18
2017-09-28T08:58:02.782Z,991.20
2017-09-28T08:59:02.783Z,991.19
2017-09-28T09:00:02.782Z,991.16
2017-09-28T09:01:02.786Z,991.12
2017-09-28T09:02:23.801Z,991.10
2017-09-28T09:03:02.793Z,991.11
2017-09-28T09:04:02.796Z,991.11
2017-09-28T09:05:02.809Z,991.08
2017-09-28T09:06:02.807Z,991.10
2017-09-28T09:07:02.805Z,991.12
2017-09-28T09:08:23.819Z,991.09
2017-09-28T09:09:02.809Z,991.09
2017-09-28T09:10:02.815Z,991.12
2017-09-28T09:11:02.816Z,991.09
2017-09-28T09:12:02.828Z,991.17
2017-09-28T09:13:02.825Z,991.12
2017-09-28T09:14:23.836Z,991.12
2017-09-28T09:15:02.829Z,991.15
2017-09-28T09:16:02.835Z,991.09
2017-09-28T09:17:02.837Z,991.09
2017-09-28T09:18:02.843Z,991.10
2017-09-28T09:19:02.875Z,991.07
2017-09-28T09:20:23.864Z,991.08
2017-09-28T09:21:02.852Z,991.07
2017-09-28T09:22:02.860Z,991.05
2017-09-28T09:23:02.862Z,991.08
2017-09-28T09:24:02.865Z,991.05
2017-09-28T09:25:02.882Z,991.00
2017-09-28T09:26:23.891Z,991.05
2017-09-28T09:27:02.882Z,991.02
2017-09-28T09:28:02.884Z,990.96
2017-09-28T09:29:02.894Z,990.96
2017-09-28T09:30:02.930Z,990.96
2017-09-28T09:31:02.901Z,990.93
2017-09-28T09:32:23.916Z,990.94
2017-09-28T09:33:02.938Z,990.93
2017-09-28T09:34:02.912Z,990.92
2017-09-28T09:35:02.913Z,990.97
2017-09-28T09:36:02.924Z,990.96
2017-09-28T09:37:02.944Z,990.94
2017-09-28T09:38:23.938Z,990.99
2017-09-28T09:39:02.936Z,990.93
2017-09-28T09:40:02.950Z,990.97
2017-09-28T09:41:02.979Z,990.99
2017-09-28T09:42:02.958Z,990.96
2017-09-28T09:43:03.045Z,990.98
2017-09-28T09:44:23.971Z,991.01
2017-09-28T09:45:02.985Z,990.99
2017-09-28T09:46:02.975Z,991.01
2017-09-28T09:47:02.996Z,991.00
2017-09-28T09:48:02.993Z,991.03
2017-09-28T09:49:02.996Z,991.00
2017-09-28T09:50:24.011Z,991.01
2017-09-28T09:51:02.991Z,991.03
2017-09-28T09:52:03.036Z,990.99
2017-09-28T09:53:03.004Z,991.06
2017-09-28T09:54:03.037Z,991.05
2017-09-28T09:55:03.038Z,991.02
2017-09-28T09:56:24.031Z,991.00
2017-09-28T09:57:03.093Z,990.99
2017-09-28T09:58:03.040Z,990.99
2017-09-28T09:59:03.035Z,990.95
2017-09-28T10:00:03.039Z,990.94
2017-09-28T10:01:03.055Z,990.96
2017-09-28T10:02:24.060Z,990.93
2017-09-28T10:03:03.090Z,990.93
2017-09-28T10:04:03.061Z,990.88
2017-09-28T10:05:03.058Z,990.88
2017-09-28T10:06:03.083Z,990.84
2017-09-28T10:07:03.071Z,990.83
2017-09-28T10:08:24.112Z,990.84
2017-09-28T10:09:03.080Z,990.81
2017-09-28T10:10:03.132Z,990.83
2017-09-28T10:11:03.092Z,990.84
2017-09-28T10:12:03.100Z,990.88
2017-09-28T10:13:03.142Z,990.88
2017-09-28T10:14:24.137Z,990.91
2017-09-28T10:15:03.113Z,990.91
2017-09-28T10:16:03.119Z,990.89
2017-09-28T10:17:03.121Z,990.88
2017-09-28T10:18:03.124Z,990.91
2017-09-28T10:19:03.170Z,990.86
2017-09-28T10:20:24.144Z,990.90
2017-09-28T10:21:03.139Z,990.90
2017-09-28T10:22:03.151Z,990.93
2017-09-28T10:23:03.152Z,990.95
2017-09-28T10:24:03.156Z,990.94
2017-09-28T10:25:03.161Z,990.96
2017-09-28T10:26:24.173Z,990.93
2017-09-28T10:27:03.175Z,990.93
2017-09-28T10:28:03.204Z,990.96
2017-09-28T10:29:03.187Z,990.94
2017-09-28T10:30:03.191Z,990.94
2017-09-28T10:31:03.194Z,990.95
2017-09-28T10:32:24.213Z,990.92
2017-09-28T10:33:03.214Z,990.95
2017-09-28T10:34:03.227Z,990.97
2017-09-28T10:35:03.222Z,990.93
2017-09-28T10:36:04.128Z,990.93
2017-09-28T10:37:03.229Z,990.96
2017-09-28T10:38:24.239Z,990.93
2017-09-28T10:39:03.239Z,991.00
2017-09-28T10:40:03.239Z,990.92
2017-09-28T10:41:03.247Z,990.97
2017-09-28T10:42:03.248Z,990.98
2017-09-28T10:43:03.255Z,990.97
2017-09-28T10:44:24.282Z,990.98
2017-09-28T10:45:03.270Z,990.98
2017-09-28T10:46:03.273Z,990.98
2017-09-28T10:47:03.276Z,990.97
2017-09-28T10:48:03.294Z,990.99
2017-09-28T10:49:03.296Z,990.95
2017-09-28T10:50:25.111Z,990.95
2017-09-28T10:51:03.335Z,990.97
2017-09-28T10:52:03.303Z,991.00
2017-09-28T10:53:03.306Z,990.98
2017-09-28T10:54:03.311Z,990.97
2017-09-28T10:55:03.320Z,990.98
2017-09-28T10:56:24.391Z,990.96
2017-09-28T10:57:03.339Z,990.98
2017-09-28T10:58:03.334Z,990.94
2017-09-28T10:59:03.345Z,990.98
2017-09-28T11:00:03.355Z,990.97
2017-09-28T11:01:03.382Z,991.00
2017-09-28T11:02:24.374Z,991.04
2017-09-28T11:03:03.380Z,991.01
2017-09-28T11:04:03.371Z,991.05
2017-09-28T11:05:03.399Z,991.00
2017-09-28T11:06:03.388Z,991.03
2017-09-28T11:07:03.400Z,991.04
2017-09-28T11:08:24.406Z,991.03
2017-09-28T11:09:03.407Z,991.02
2017-09-28T11:10:03.414Z,991.03
2017-09-28T11:11:03.432Z,991.00
2017-09-28T11:12:03.428Z,990.99
2017-09-28T11:13:03.427Z,991.00
2017-09-28T11:14:24.439Z,991.05
2017-09-28T11:15:03.445Z,991.02
2017-09-28T11:16:03.451Z,991.04
2017-09-28T11:17:03.454Z,991.04
2017-09-28T11:18:03.464Z,991.04
2017-09-28T11:19:03.463Z,991.01
2017-09-28T11:20:24.482Z,991.04
2017-09-28T11:21:03.483Z,991.07
2017-09-28T11:22:03.512Z,991.01
2017-09-28T11:23:03.540Z,991.01
2017-09-28T11:24:03.505Z,991.00
2017-09-28T11:25:03.505Z,991.00
2017-09-28T11:26:24.531Z,991.00
2017-09-28T11:27:03.521Z,991.03
2017-09-28T11:28:03.524Z,991.03
2017-09-28T11:29:03.543Z,990.98
2017-09-28T11:30:03.540Z,990.99
2017-09-28T11:31:03.566Z,990.99
2017-09-28T11:32:24.593Z,990.97
2017-09-28T11:33:03.559Z,990.98
2017-09-28T11:34:03.556Z,990.99
2017-09-28T11:35:03.568Z,990.95
2017-09-28T11:36:03.573Z,990.96
2017-09-28T11:37:03.585Z,990.95
2017-09-28T11:38:24.600Z,990.98
2017-09-28T11:39:03.588Z,990.91
2017-09-28T11:40:03.598Z,990.92
2017-09-28T11:41:03.606Z,990.92
2017-09-28T11:42:03.610Z,990.95
2017-09-28T11:43:03.622Z,990.92
2017-09-28T11:44:24.651Z,990.89
2017-09-28T11:45:03.625Z,990.91
2017-09-28T11:46:03.642Z,990.91
2017-09-28T11:47:03.643Z,990.88
2017-09-28T11:48:03.651Z,990.90
2017-09-28T11:49:03.659Z,990.86
2017-09-28T11:50:24.671Z,990.91
2017-09-28T11:51:03.667Z,990.87
2017-09-28T11:52:03.675Z,990.90
2017-09-28T11:53:03.677Z,990.87
2017-09-28T11:54:03.686Z,990.86
2017-09-28T11:55:03.694Z,990.85
2017-09-28T11:56:24.717Z,990.84
2017-09-28T11:57:03.704Z,990.83
2017-09-28T11:58:03.713Z,990.84
2017-09-28T11:59:03.724Z,990.86
2017-09-28T12:00:03.751Z,990.86
2017-09-28T12:01:03.731Z,990.87
2017-09-28T12:02:24.751Z,990.92
2017-09-28T12:03:03.746Z,990.90
2017-09-28T12:04:03.751Z,990.89
2017-09-28T12:05:03.770Z,990.91
2017-09-28T12:06:03.765Z,990.91
2017-09-28T12:07:03.770Z,990.88
2017-09-28T12:08:24.785Z,990.88
2017-09-28T12:09:03.784Z,990.90
2017-09-28T12:10:03.791Z,990.89
2017-09-28T12:11:03.799Z,990.87
2017-09-28T12:12:03.807Z,990.89
2017-09-28T12:13:03.809Z,990.88
2017-09-28T12:14:24.823Z,990.85
2017-09-28T12:15:03.823Z,990.87
2017-09-28T12:16:03.826Z,990.83
2017-09-28T12:17:03.835Z,990.90
2017-09-28T12:18:03.842Z,990.87
2017-09-28T12:19:03.869Z,990.86
2017-09-28T12:20:25.476Z,990.87
2017-09-28T12:21:03.869Z,990.86
2017-09-28T12:22:04.393Z,990.87
2017-09-28T12:23:03.900Z,990.89
2017-09-28T12:24:03.896Z,990.82
2017-09-28T12:25:03.925Z,990.84
2017-09-28T12:26:24.914Z,990.82
2017-09-28T12:27:03.899Z,990.82
2017-09-28T12:28:03.921Z,990.84
2017-09-28T12:29:16.039Z,990.81